Time;durP1;ratioP1;P1;durP2;ratioP2;P2;SDS_P1;SDS_P2;PMS_P1;PMS_P2;Temp;Humidity;BMP_temperature;BMP_pressure;BME280_temperature;BME280_humidity;BME280_pressure;Samples;Min_cycle;Max_cycle;Signal;HPM_P1;HPM_P2
2021/11/26 00:02:07;;;;;;;;;;;5.00;99.90;;;;;;8407571;28;19927;-73
2021/11/26 00:06:09;;;;;;;;;;;5.00;99.90;;;;;;8457709;28;19931;-72
2021/11/26 00:10:11;;;;;;;;;;;5.00;99.90;;;;;;8418597;28;19924;-73
2021/11/26 00:14:19;;;;;;;;;;;5.00;99.90;;;;;;8424730;28;19956;-72
2021/11/26 00:18:21;;;;;;;;;;;5.00;99.90;;;;;;8416151;28;20291;-72
2021/11/26 00:22:22;;;;;;;;;;;5.00;99.90;;;;;;8417068;28;19955;-73
2021/11/26 00:26:24;;;;;;;;;;;5.10;99.90;;;;;;8418275;28;19927;-72
2021/11/26 00:30:26;;;;;;;;;;;5.10;99.90;;;;;;8421069;28;19978;-73
2021/11/26 00:34:27;;;;;;;;;;;5.20;99.90;;;;;;8427788;28;19926;-74
2021/11/26 00:38:29;;;;;;;;;;;5.20;99.90;;;;;;8422966;28;20015;-74
2021/11/26 00:42:30;;;;;;;;;;;5.20;99.90;;;;;;8418765;28;19920;-75
2021/11/26 00:46:32;;;;;;;;;;;5.20;99.90;;;;;;8417655;28;19970;-74
2021/11/26 00:50:35;;;;;;;;;;;5.20;99.90;;;;;;8428536;28;19920;-75
2021/11/26 00:54:36;;;;;;;;;;;5.10;99.90;;;;;;8420244;28;19924;-75
2021/11/26 00:58:38;;;;;;;;;;;5.10;99.90;;;;;;8414826;28;20288;-75
2021/11/26 01:02:40;;;;;;;;;;;5.10;99.90;;;;;;8427955;28;19931;-75
2021/11/26 01:06:42;;;;;;;;;;;5.10;99.90;;;;;;8427417;28;20448;-75
2021/11/26 01:10:44;;;;;;;;;;;5.10;99.90;;;;;;8426441;28;19924;-74
2021/11/26 01:14:45;;;;;;;;;;;5.00;99.90;;;;;;8430765;28;19955;-75
2021/11/26 01:18:47;;;;;;;;;;;5.00;99.90;;;;;;8433004;28;19919;-75
2021/11/26 01:22:49;;;;;;;;;;;4.90;99.90;;;;;;8417039;28;19958;-74
2021/11/26 01:26:50;;;;;;;;;;;4.90;99.90;;;;;;8421344;28;20390;-75
2021/11/26 01:30:52;;;;;;;;;;;4.80;99.90;;;;;;8418288;28;19960;-74
2021/11/26 01:34:54;;;;;;;;;;;4.90;99.90;;;;;;8424708;28;19920;-74
2021/11/26 01:38:56;;;;;;;;;;;5.00;99.90;;;;;;8424768;28;20406;-75
2021/11/26 01:42:57;;;;;;;;;;;5.00;99.90;;;;;;8428163;28;20038;-75
2021/11/26 01:47:00;;;;;;;;;;;5.00;99.90;;;;;;8425257;28;19963;-75
2021/11/26 01:51:02;;;;;;;;;;;5.10;99.90;;;;;;8422220;28;19959;-75
2021/11/26 01:55:05;;;;;;;;;;;5.10;99.90;;;;;;8425475;28;19974;-75
2021/11/26 01:59:07;;;;;;;;;;;5.10;99.90;;;;;;8416188;28;19968;-75
2021/11/26 02:03:08;;;;;;;;;;;5.10;99.90;;;;;;8430141;28;19959;-75
2021/11/26 02:07:11;;;;;;;;;;;5.10;99.90;;;;;;8431875;28;19927;-74
2021/11/26 02:11:13;;;;;;;;;;;5.10;99.90;;;;;;8430819;28;19960;-74
2021/11/26 02:15:16;;;;;;;;;;;5.10;99.90;;;;;;8417223;28;20031;-75
2021/11/26 02:19:21;;;;;;;;;;;5.20;99.90;;;;;;8417992;28;19932;-74
2021/11/26 02:23:23;;;;;;;;;;;5.20;99.90;;;;;;8426334;28;20363;-74
2021/11/26 02:27:25;;;;;;;;;;;5.20;99.90;;;;;;8421174;28;20366;-75
2021/11/26 02:31:26;;;;;;;;;;;5.20;99.90;;;;;;8424774;28;19971;-74
2021/11/26 02:35:28;;;;;;;;;;;5.20;99.90;;;;;;8436125;28;20014;-74
2021/11/26 02:39:30;;;;;;;;;;;5.10;99.90;;;;;;8426471;28;19966;-74
2021/11/26 02:43:31;;;;;;;;;;;5.10;99.90;;;;;;8422245;28;19920;-74
2021/11/26 02:47:33;;;;;;;;;;;5.00;99.90;;;;;;8415272;28;20383;-74
2021/11/26 02:51:35;;;;;;;;;;;5.10;99.90;;;;;;8423800;28;19942;-75
2021/11/26 02:55:38;;;;;;;;;;;5.10;99.90;;;;;;8409180;28;19920;-74
2021/11/26 02:59:39;;;;;;;;;;;5.10;99.90;;;;;;8419953;28;20376;-75
2021/11/26 03:03:41;;;;;;;;;;;5.10;99.90;;;;;;8427265;28;19919;-74
2021/11/26 03:07:43;;;;;;;;;;;5.00;99.90;;;;;;8429864;28;19928;-74
2021/11/26 03:11:44;;;;;;;;;;;5.10;99.90;;;;;;8422412;28;19926;-75
2021/11/26 03:15:46;;;;;;;;;;;5.00;99.90;;;;;;8421918;28;19920;-73
2021/11/26 03:19:47;;;;;;;;;;;5.00;99.90;;;;;;8426491;28;19947;-73
2021/11/26 03:23:49;;;;;;;;;;;5.00;99.90;;;;;;8428339;28;19920;-73
2021/11/26 03:27:51;;;;;;;;;;;5.00;99.90;;;;;;8418585;28;19931;-75
2021/11/26 03:31:53;;;;;;;;;;;5.10;99.90;;;;;;8429599;28;19927;-75
2021/11/26 03:35:54;;;;;;;;;;;5.10;99.90;;;;;;8418398;28;19920;-75
2021/11/26 03:39:56;;;;;;;;;;;5.10;99.90;;;;;;8421845;28;19920;-74
2021/11/26 03:43:57;;;;;;;;;;;5.10;99.90;;;;;;8433353;28;19923;-75
2021/11/26 03:47:59;;;;;;;;;;;5.10;99.90;;;;;;8424061;28;19920;-75
2021/11/26 03:52:01;;;;;;;;;;;5.20;99.90;;;;;;8450798;27;19971;-73
2021/11/26 03:56:03;;;;;;;;;;;5.20;99.90;;;;;;8422973;28;19927;-73
2021/11/26 04:00:06;;;;;;;;;;;5.10;99.90;;;;;;8420456;28;19963;-72
2021/11/26 04:04:07;;;;;;;;;;;5.20;99.90;;;;;;8419115;28;19921;-72
2021/11/26 04:08:09;;;;;;;;;;;5.10;99.90;;;;;;8433654;28;19928;-72
2021/11/26 04:12:10;;;;;;;;;;;5.10;99.90;;;;;;8418361;28;19924;-72
2021/11/26 04:16:13;;;;;;;;;;;5.10;99.90;;;;;;8420988;28;19927;-73
2021/11/26 04:20:16;;;;;;;;;;;5.10;99.90;;;;;;8433537;28;19920;-73
2021/11/26 04:24:17;;;;;;;;;;;5.00;99.90;;;;;;8430007;28;19920;-73
2021/11/26 04:28:19;;;;;;;;;;;5.00;99.90;;;;;;8423558;28;19990;-73
2021/11/26 04:32:20;;;;;;;;;;;4.90;99.90;;;;;;8431914;28;19950;-72
2021/11/26 04:36:23;;;;;;;;;;;4.90;99.90;;;;;;8430749;28;20406;-72
2021/11/26 04:40:24;;;;;;;;;;;4.80;99.90;;;;;;8429289;28;19920;-72
2021/11/26 04:44:26;;;;;;;;;;;4.80;99.90;;;;;;8432591;28;19927;-72
2021/11/26 04:48:28;;;;;;;;;;;4.70;99.90;;;;;;8432589;28;20336;-72
2021/11/26 04:52:30;;;;;;;;;;;4.70;99.90;;;;;;8441778;28;19927;-73
2021/11/26 04:56:32;;;;;;;;;;;4.70;99.90;;;;;;8423771;28;19919;-74
2021/11/26 05:00:33;;;;;;;;;;;4.60;99.90;;;;;;8424643;28;19971;-75
2021/11/26 05:04:35;;;;;;;;;;;4.60;99.90;;;;;;8430219;28;20389;-75
2021/11/26 05:08:37;;;;;;;;;;;4.60;99.90;;;;;;8430969;28;19974;-75
2021/11/26 05:12:44;;;;;;;;;;;4.50;99.90;;;;;;8442929;27;19963;-75
2021/11/26 05:16:46;;;;;;;;;;;4.50;99.90;;;;;;8429949;28;19943;-74
2021/11/26 05:20:47;;;;;;;;;;;4.50;99.90;;;;;;8430586;28;19930;-74
2021/11/26 05:24:49;;;;;;;;;;;4.50;99.90;;;;;;8428152;28;19972;-74
2021/11/26 05:28:52;;;;;;;;;;;4.60;99.90;;;;;;8423995;28;19928;-75
2021/11/26 05:32:53;;;;;;;;;;;4.60;99.90;;;;;;8425877;28;19924;-75
2021/11/26 05:36:55;;;;;;;;;;;4.60;99.90;;;;;;8413994;28;20363;-75
2021/11/26 05:40:57;;;;;;;;;;;4.60;99.90;;;;;;8425142;28;19920;-75
2021/11/26 05:44:59;;;;;;;;;;;4.60;99.90;;;;;;8465350;27;20331;-75
2021/11/26 05:49:01;;;;;;;;;;;4.60;99.90;;;;;;8425418;28;19946;-75
2021/11/26 05:53:03;;;;;;;;;;;4.60;99.90;;;;;;8432750;28;20251;-75
2021/11/26 05:57:04;;;;;;;;;;;4.70;99.90;;;;;;8423228;27;19932;-75
2021/11/26 06:01:06;;;;;;;;;;;4.70;99.90;;;;;;8430021;28;20386;-75
2021/11/26 06:05:08;;;;;;;;;;;4.70;99.90;;;;;;8426920;28;19920;-75
2021/11/26 06:09:09;;;;;;;;;;;4.80;99.90;;;;;;8426245;28;19935;-75
2021/11/26 06:13:11;;;;;;;;;;;4.80;99.90;;;;;;8429270;28;20359;-75
2021/11/26 06:17:13;;;;;;;;;;;4.80;99.90;;;;;;8433881;28;19974;-75
2021/11/26 06:21:15;;;;;;;;;;;4.80;99.90;;;;;;8435251;27;19921;-74
2021/11/26 06:25:18;;;;;;;;;;;4.80;99.90;;;;;;8416213;28;19920;-75
2021/11/26 06:29:20;;;;;;;;;;;4.80;99.90;;;;;;8409937;28;20014;-75
2021/11/26 06:33:21;;;;;;;;;;;4.80;99.90;;;;;;8425464;28;20217;-75
2021/11/26 06:37:23;;;;;;;;;;;4.80;99.90;;;;;;8417434;28;19924;-75
2021/11/26 06:41:25;;;;;;;;;;;4.70;99.90;;;;;;8421813;28;19955;-75
2021/11/26 06:45:26;;;;;;;;;;;4.70;99.90;;;;;;8426812;28;19924;-75
2021/11/26 06:49:28;;;;;;;;;;;4.70;99.90;;;;;;8434339;28;20308;-74
2021/11/26 06:53:30;;;;;;;;;;;4.70;99.90;;;;;;8425388;28;20367;-74
2021/11/26 06:57:31;;;;;;;;;;;4.70;99.90;;;;;;8443325;27;19974;-75
2021/11/26 07:01:33;;;;;;;;;;;4.70;99.90;;;;;;8416080;28;19971;-75
2021/11/26 07:05:34;;;;;;;;;;;4.60;99.90;;;;;;8397219;28;19920;-75
2021/11/26 07:09:36;;;;;;;;;;;4.60;99.90;;;;;;8423562;28;20399;-75
2021/11/26 07:13:38;;;;;;;;;;;4.60;99.90;;;;;;8422881;28;20288;-75
2021/11/26 07:17:40;;;;;;;;;;;4.60;99.90;;;;;;8419147;28;19927;-74
2021/11/26 07:21:41;;;;;;;;;;;4.50;99.90;;;;;;8426026;28;19946;-75
2021/11/26 07:25:43;;;;;;;;;;;4.50;99.90;;;;;;8432372;28;19919;-75
2021/11/26 07:29:45;;;;;;;;;;;4.50;99.90;;;;;;8420753;28;19924;-75
2021/11/26 07:33:47;;;;;;;;;;;4.50;99.90;;;;;;8430650;28;19975;-75
2021/11/26 07:37:48;;;;;;;;;;;4.50;99.90;;;;;;8420794;28;20250;-75
2021/11/26 07:41:50;;;;;;;;;;;4.50;99.90;;;;;;8414239;28;20038;-75
2021/11/26 07:45:52;;;;;;;;;;;4.60;99.90;;;;;;8419659;28;19935;-75
2021/11/26 07:49:54;;;;;;;;;;;4.60;99.90;;;;;;8420831;28;19920;-75
2021/11/26 07:53:56;;;;;;;;;;;4.60;99.90;;;;;;8421193;28;19919;-75
2021/11/26 07:57:57;;;;;;;;;;;4.60;99.90;;;;;;8450737;28;19927;-75
2021/11/26 08:01:59;;;;;;;;;;;4.60;99.90;;;;;;8418477;28;19928;-75
2021/11/26 08:06:01;;;;;;;;;;;4.60;99.90;;;;;;8411884;28;19967;-75
2021/11/26 08:10:04;;;;;;;;;;;4.60;99.90;;;;;;8456428;28;19923;-75
2021/11/26 08:14:06;;;;;;;;;;;4.60;99.90;;;;;;8421146;28;19983;-75
2021/11/26 08:18:08;;;;;;;;;;;4.60;99.90;;;;;;8432793;28;20586;-74
2021/11/26 08:22:11;;;;;;;;;;;4.50;99.90;;;;;;8420303;28;19920;-75
2021/11/26 08:26:14;;;;;;;;;;;4.60;99.90;;;;;;8426577;28;19927;-75
2021/11/26 08:30:15;;;;;;;;;;;4.60;99.90;;;;;;8427400;28;19955;-75
2021/11/26 08:34:17;;;;;;;;;;;4.60;99.90;;;;;;8422629;28;20348;-74
2021/11/26 08:38:19;;;;;;;;;;;4.60;99.90;;;;;;8427177;28;19934;-73
2021/11/26 08:42:21;;;;;;;;;;;4.60;99.90;;;;;;8424278;28;19943;-72
2021/11/26 08:46:23;;;;;;;;;;;4.60;99.90;;;;;;8414270;28;19924;-74
2021/11/26 08:50:24;;;;;;;;;;;4.60;99.90;;;;;;8417538;28;19921;-75
2021/11/26 08:54:26;;;;;;;;;;;4.60;99.90;;;;;;8418500;28;19920;-75
2021/11/26 08:58:28;;;;;;;;;;;4.70;99.90;;;;;;8422641;28;19931;-73
2021/11/26 09:02:30;;;;;;;;;;;4.70;99.90;;;;;;8420202;28;19920;-75
2021/11/26 09:06:32;;;;;;;;;;;4.70;99.90;;;;;;8433074;28;19927;-75
2021/11/26 09:10:36;;;;;;;12.45;3.95;;;4.80;99.90;;;;;;8424160;28;19931;-75
2021/11/26 09:14:38;;;;;;;;;;;4.90;99.90;;;;;;8420674;28;20051;-73
2021/11/26 09:18:40;;;;;;;;;;;4.90;99.90;;;;;;8437841;28;20264;-73
2021/11/26 09:22:42;;;;;;;;;;;5.00;99.90;;;;;;8428634;28;19924;-75
2021/11/26 09:26:43;;;;;;;;;;;5.10;99.90;;;;;;8440022;28;19935;-74
2021/11/26 09:30:48;;;;;;;;;;;5.10;99.90;;;;;;8426066;28;19927;-73
2021/11/26 09:34:50;;;;;;;;;;;5.20;99.90;;;;;;8430509;28;19920;-73
2021/11/26 09:38:52;;;;;;;;;;;5.30;99.90;;;;;;8432022;28;19963;-75
2021/11/26 09:42:53;;;;;;;;;;;5.30;99.90;;;;;;8429949;28;19931;-73
2021/11/26 09:46:56;;;;;;;;;;;5.40;99.90;;;;;;8426622;28;19931;-74
2021/11/26 09:50:58;;;;;;;;;;;5.40;99.90;;;;;;8431198;28;19920;-73
2021/11/26 09:54:59;;;;;;;;;;;5.40;99.90;;;;;;8440847;28;19974;-74
2021/11/26 09:59:01;;;;;;;;;;;5.30;99.90;;;;;;8418771;28;19920;-75
2021/11/26 10:03:03;;;;;;;;;;;5.30;99.90;;;;;;8433229;28;19961;-74
2021/11/26 10:07:05;;;;;;;;;;;5.30;99.90;;;;;;8429702;28;19920;-75
2021/11/26 10:11:06;;;;;;;;;;;5.30;99.90;;;;;;8449506;27;19927;-72
2021/11/26 10:15:08;;;;;;;;;;;5.20;99.90;;;;;;8438329;28;19920;-74
2021/11/26 10:19:11;;;;;;;;;;;5.30;99.90;;;;;;8429520;28;19931;-74
2021/11/26 10:23:17;;;;;;;;;;;5.30;99.90;;;;;;8433055;28;19920;-74
2021/11/26 10:27:18;;;;;;;;;;;5.30;99.90;;;;;;8427066;28;20375;-74
2021/11/26 10:31:30;;;;;;;;;;;5.30;99.90;;;;;;8432968;28;19923;-72
2021/11/26 10:35:41;;;;;;;;;;;5.40;99.90;;;;;;8421743;28;19919;-75
2021/11/26 10:39:43;;;;;;;;;;;5.50;99.90;;;;;;8429542;28;19927;-75
2021/11/26 10:44:06;;;;;;;;;;;5.60;99.90;;;;;;8432278;28;19924;-74
2021/11/26 11:01:15;;;;;;;;;;;6.10;99.90;;;;;;8419619;28;19919;-73
2021/11/26 11:05:31;;;;;;;;;;;6.30;99.90;;;;;;8423645;28;19973;-73
2021/11/26 11:09:50;;;;;;;;;;;6.40;99.90;;;;;;8422918;28;20022;-73
2021/11/26 11:13:52;;;;;;;;;;;6.50;99.90;;;;;;8422676;28;20295;-73
2021/11/26 11:17:54;;;;;;;;;;;6.50;99.90;;;;;;8462423;27;19924;-74
2021/11/26 11:21:56;;;;;;;;;;;6.40;99.90;;;;;;8425531;28;19930;-73
2021/11/26 11:25:58;;;;;;;;;;;6.20;99.90;;;;;;8422290;28;19970;-73
2021/11/26 11:30:02;;;;;;;;;;;6.00;99.90;;;;;;8415190;28;19935;-72
2021/11/26 11:34:04;;;;;;;7.45;2.20;;;6.00;99.90;;;;;;8416856;28;19971;-73
2021/11/26 11:38:08;;;;;;;;;;;6.00;99.90;;;;;;8420385;28;20398;-73
2021/11/26 11:42:09;;;;;;;;;;;5.90;99.90;;;;;;8417084;28;19931;-73
2021/11/26 11:46:14;;;;;;;;;;;5.80;99.90;;;;;;8407337;28;19920;-73
2021/11/26 11:50:18;;;;;;;;;;;5.70;99.90;;;;;;8420166;28;19926;-73
2021/11/26 11:54:20;;;;;;;;;;;5.70;99.90;;;;;;8432832;28;19960;-73
2021/11/26 11:58:24;;;;;;;;;;;5.60;99.90;;;;;;8440065;28;19970;-73
2021/11/26 12:02:27;;;;;;;;;;;5.50;99.90;;;;;;8425276;28;19920;-74
2021/11/26 12:06:37;;;;;;;;;;;5.50;99.90;;;;;;8429382;28;19935;-72
2021/11/26 12:10:43;;;;;;;;;;;5.40;99.90;;;;;;8421872;28;19920;-72
2021/11/26 12:14:48;;;;;;;;;;;5.30;99.90;;;;;;8433947;28;19963;-72
2021/11/26 12:18:51;;;;;;;;;;;5.30;99.90;;;;;;8433509;28;19967;-72
2021/11/26 12:23:06;;;;;;;;;;;5.30;99.90;;;;;;8418677;28;20917;-71
2021/11/26 12:27:18;;;;;;;;;;;5.30;99.90;;;;;;8424860;28;19928;-72
2021/11/26 12:31:21;;;;;;;;;;;5.20;99.90;;;;;;8423427;28;19920;-72
2021/11/26 12:35:23;;;;;;;;;;;5.20;99.90;;;;;;8423615;28;20282;-72
2021/11/26 12:39:27;;;;;;;;;;;5.20;99.90;;;;;;8421236;28;19946;-74
2021/11/26 12:43:37;;;;;;;;;;;5.20;99.90;;;;;;8426198;28;19958;-71
2021/11/26 12:47:57;;;;;;;;;;;5.10;99.90;;;;;;8430332;28;19924;-74
2021/11/26 12:52:06;;;;;;;;;;;5.00;99.90;;;;;;8415008;28;19936;-71
2021/11/26 12:56:09;;;;;;;;;;;4.90;99.90;;;;;;8412362;28;19959;-72
2021/11/26 13:00:11;;;;;;;;;;;4.80;99.90;;;;;;8408856;28;20379;-72
2021/11/26 13:04:12;;;;;;;;;;;4.70;99.90;;;;;;8402261;28;19924;-73
2021/11/26 13:08:17;;;;;;;;;;;4.70;99.90;;;;;;8406273;28;19924;-72
2021/11/26 13:12:20;;;;;;;;;;;4.60;99.90;;;;;;8409163;28;20331;-72
2021/11/26 13:16:21;;;;;;;;;;;4.60;99.90;;;;;;8407986;28;20560;-73
2021/11/26 13:20:33;;;;;;;;;;;4.60;99.90;;;;;;8405280;28;19924;-73
2021/11/26 13:24:37;;;;;;;;;;;4.50;99.90;;;;;;8403657;28;20356;-74
2021/11/26 13:28:40;;;;;;;;;;;4.60;99.90;;;;;;8402632;28;19931;-75
2021/11/26 13:33:01;;;;;;;;;;;4.50;99.90;;;;;;8405903;28;19936;-72
2021/11/26 13:37:07;;;;;;;;;;;4.40;99.90;;;;;;8407855;28;20010;-73
2021/11/26 13:41:14;;;;;;;;;;;4.50;99.90;;;;;;8408757;28;19920;-75
2021/11/26 13:45:16;;;;;;;;;;;4.40;99.90;;;;;;8409274;28;20332;-72
2021/11/26 13:49:24;;;;;;;;;;;4.40;99.90;;;;;;8404977;28;19924;-73
2021/11/26 13:53:26;;;;;;;;;;;4.40;99.90;;;;;;8408456;28;19921;-75
2021/11/26 13:57:29;;;;;;;;;;;4.40;99.90;;;;;;8406600;28;19920;-72
2021/11/26 14:01:35;;;;;;;;;;;4.40;99.90;;;;;;8413083;28;20026;-72
2021/11/26 14:05:38;;;;;;;;;;;4.30;99.90;;;;;;8407752;28;20362;-75
2021/11/26 14:09:41;;;;;;;;;;;4.30;99.90;;;;;;8404757;28;19996;-75
2021/11/26 14:13:50;;;;;;;;;;;4.20;99.90;;;;;;8408621;28;19919;-75
2021/11/26 14:17:52;;;;;;;;;;;4.20;99.90;;;;;;8412480;28;20018;-75
2021/11/26 14:21:54;;;;;;;;;;;4.10;99.90;;;;;;8419821;27;19931;-75
2021/11/26 14:26:05;;;;;;;;;;;4.10;99.90;;;;;;8408262;28;19969;-75
2021/11/26 14:30:09;;;;;;;;;;;4.20;99.90;;;;;;8401442;28;19967;-75
2021/11/26 14:34:12;;;;;;;;;;;4.20;99.90;;;;;;8435607;27;20387;-72
2021/11/26 14:38:15;;;;;;;;;;;4.20;99.90;;;;;;8400200;28;19935;-72
2021/11/26 14:42:26;;;;;;;;;;;4.20;99.90;;;;;;8405979;28;19978;-73
2021/11/26 14:46:28;;;;;;;;;;;4.20;99.90;;;;;;8403389;28;19924;-72
2021/11/26 14:50:30;;;;;;;;;;;4.20;99.90;;;;;;8419034;27;20368;-72
2021/11/26 14:54:32;;;;;;;;;;;4.20;99.90;;;;;;8403039;28;20062;-72
2021/11/26 14:58:33;;;;;;;;;;;4.20;99.90;;;;;;8418121;27;20388;-72
2021/11/26 15:02:36;;;;;;;;;;;4.20;99.90;;;;;;8413141;28;19924;-72
2021/11/26 15:06:38;;;;;;;;;;;4.20;99.90;;;;;;8407971;28;19934;-72
2021/11/26 15:10:41;;;;;;;;;;;4.20;99.90;;;;;;8403094;28;20010;-72
2021/11/26 15:14:42;;;;;;;;;;;4.20;99.90;;;;;;8405382;28;19939;-72
2021/11/26 15:18:44;;;;;;;;;;;4.20;99.90;;;;;;8418413;28;20009;-72
2021/11/26 15:22:46;;;;;;;;;;;4.20;99.90;;;;;;8405671;28;20002;-72
2021/11/26 15:26:47;;;;;;;;;;;4.10;99.90;;;;;;8404955;28;20291;-72
2021/11/26 15:30:49;;;;;;;;;;;4.00;99.90;;;;;;8407270;28;19956;-74
2021/11/26 15:34:51;;;;;;;;;;;4.00;99.90;;;;;;8403099;28;19945;-74
2021/11/26 15:38:53;;;;;;;;;;;3.90;99.90;;;;;;8399221;28;19920;-74
2021/11/26 15:42:54;;;;;;;;;;;3.90;99.90;;;;;;8395034;28;20027;-74
2021/11/26 15:46:56;;;;;;;;;;;3.90;99.90;;;;;;8397989;28;19924;-74
2021/11/26 15:50:57;;;;;;;;;;;3.90;99.90;;;;;;8397698;28;20359;-75
2021/11/26 15:54:59;;;;;;;;;;;4.00;99.90;;;;;;8406411;28;19970;-75
2021/11/26 15:59:01;;;;;;;;;;;4.00;99.90;;;;;;8396707;28;19935;-74
2021/11/26 16:03:03;;;;;;;;;;;4.10;99.90;;;;;;8408210;28;19927;-74
2021/11/26 16:07:05;;;;;;;;;;;4.10;99.90;;;;;;8394380;28;19928;-74
2021/11/26 16:11:07;;;;;;;;;;;4.20;99.90;;;;;;8413752;28;19921;-74
2021/11/26 16:15:08;;;;;;;;;;;4.30;99.90;;;;;;8406180;28;19920;-74
2021/11/26 16:19:10;;;;;;;;;;;4.30;99.90;;;;;;8403038;28;19927;-72
2021/11/26 16:23:12;;;;;;;;;;;4.40;99.90;;;;;;8402743;28;20007;-72
2021/11/26 16:27:13;;;;;;;;;;;4.40;99.90;;;;;;8401447;28;19956;-72
2021/11/26 16:31:25;;;;;;;;;;;4.50;99.90;;;;;;8413091;28;19940;-72
2021/11/26 16:35:34;;;;;;;;;;;4.50;99.90;;;;;;8425709;28;20359;-72
2021/11/26 16:39:36;;;;;;;;;;;4.50;99.90;;;;;;8412155;28;20516;-72
2021/11/26 16:43:38;;;;;;;;;;;4.50;99.90;;;;;;8415065;28;19931;-71
2021/11/26 16:47:58;;;;;;;;;;;4.50;99.90;;;;;;8404014;28;19928;-72
2021/11/26 16:52:01;;;;;;;;;;;4.60;99.90;;;;;;8398189;28;19969;-72
2021/11/26 16:56:03;;;;;;;;;;;4.60;99.90;;;;;;8394805;28;20380;-72
2021/11/26 17:00:06;;;;;;;;;;;4.60;99.90;;;;;;8396851;28;19971;-72
2021/11/26 17:04:08;;;;;;;;;;;4.70;99.90;;;;;;8394553;28;20007;-72
2021/11/26 17:08:10;;;;;;;;;;;4.70;99.90;;;;;;8428265;27;20395;-72
2021/11/26 17:12:11;;;;;;;;;;;4.70;99.90;;;;;;8398944;28;19927;-72
2021/11/26 17:16:13;;;;;;;;;;;4.70;99.90;;;;;;8397879;28;19963;-72
2021/11/26 17:20:15;;;;;;;;;;;4.80;99.90;;;;;;8396155;28;19928;-71
2021/11/26 17:24:16;;;;;;;;;;;4.80;99.90;;;;;;8394379;28;19963;-72
2021/11/26 17:28:22;;;;;;;;;;;4.80;99.90;;;;;;8394794;28;19978;-71
2021/11/26 17:32:24;;;;;;;;;;;4.80;99.90;;;;;;8394504;28;19939;-71
2021/11/26 17:36:25;;;;;;;;;;;4.80;99.90;;;;;;8403755;28;20335;-72
2021/11/26 17:40:29;;;;;;;;;;;4.90;99.90;;;;;;8406494;28;20310;-71
2021/11/26 17:44:31;;;;;;;;;;;4.90;99.90;;;;;;8432529;27;19920;-71
2021/11/26 17:48:32;;;;;;;;;;;4.90;99.90;;;;;;8407122;28;19924;-71
2021/11/26 17:52:34;;;;;;;;;;;4.80;99.90;;;;;;8396613;28;20034;-72
2021/11/26 17:56:35;;;;;;;;;;;4.90;99.90;;;;;;8412613;28;19928;-71
2021/11/26 18:00:38;;;;;;;;;;;4.90;99.90;;;;;;8409311;28;19925;-71
2021/11/26 18:04:41;;;;;;;;;;;4.90;99.90;;;;;;8399859;28;19924;-71
2021/11/26 18:08:54;;;;;;;;;;;4.90;99.90;;;;;;8417455;28;20256;-71
2021/11/26 18:13:13;;;;;;;;;;;4.90;99.90;;;;;;8399714;28;19935;-71
2021/11/26 18:17:15;;;;;;;;;;;4.90;99.90;;;;;;8401242;28;19928;-72
2021/11/26 18:21:17;;;;;;;;;;;4.90;99.90;;;;;;8393799;28;19928;-72
2021/11/26 18:25:18;;;;;;;;;;;4.90;99.90;;;;;;8390944;28;20321;-72
2021/11/26 18:29:20;;;;;;;;;;;4.90;99.90;;;;;;8394470;28;19975;-72
2021/11/26 18:33:22;;;;;;;;;;;4.90;99.90;;;;;;8395991;28;19920;-72
2021/11/26 18:37:24;;;;;;;;;;;5.00;99.90;;;;;;8396417;28;19963;-71
2021/11/26 18:41:26;;;;;;;;;;;5.00;99.90;;;;;;8388622;28;20376;-71
2021/11/26 18:45:27;;;;;;;;;;;5.00;99.90;;;;;;8395977;28;20316;-71
2021/11/26 18:49:32;;;;;;;;;;;5.00;99.90;;;;;;8393108;28;19920;-71
2021/11/26 18:53:34;;;;;;;;;;;5.10;99.90;;;;;;8393568;28;19919;-71
2021/11/26 18:57:36;;;;;;;;;;;5.10;99.90;;;;;;8394202;28;19958;-71
2021/11/26 19:01:37;;;;;;;;;;;5.10;99.90;;;;;;8393991;28;20019;-71
2021/11/26 19:05:41;;;;;;;;;;;5.10;99.90;;;;;;8394866;28;20264;-71
2021/11/26 19:09:43;;;;;;;;;;;5.10;99.90;;;;;;8423583;27;19920;-71
2021/11/26 19:13:44;;;;;;;;;;;5.10;99.90;;;;;;8393245;28;19964;-71
2021/11/26 19:17:46;;;;;;;;;;;5.10;99.90;;;;;;8389552;28;19928;-72
2021/11/26 19:21:48;;;;;;;;;;;5.10;99.90;;;;;;8394631;28;19921;-72
2021/11/26 19:25:49;;;;;;;;;;;5.10;99.90;;;;;;8420676;27;19927;-71
2021/11/26 19:29:51;;;;;;;;;;;5.10;99.90;;;;;;8391360;28;20312;-71
2021/11/26 19:33:53;;;;;;;;;;;5.10;99.90;;;;;;8427617;27;20488;-71
2021/11/26 19:37:55;;;;;;;;;;;5.10;99.90;;;;;;8389708;28;20026;-72
2021/11/26 19:41:57;;;;;;;;;;;5.20;99.90;;;;;;8389916;28;19963;-72
2021/11/26 19:45:58;;;;;;;;;;;5.20;99.90;;;;;;8407128;28;19936;-71
2021/11/26 19:50:00;;;;;;;;;;;5.20;99.90;;;;;;8407208;28;20280;-72
2021/11/26 19:54:02;;;;;;;;;;;5.20;99.90;;;;;;8390701;28;20264;-71
2021/11/26 19:58:06;;;;;;;;;;;5.30;99.90;;;;;;8390117;28;19990;-71
2021/11/26 20:02:07;;;;;;;;;;;5.30;99.90;;;;;;8426739;27;20398;-72
2021/11/26 20:06:10;;;;;;;;;;;5.30;99.90;;;;;;8389697;28;19924;-72
2021/11/26 20:10:13;;;;;;;;;;;5.30;99.90;;;;;;8387108;28;19970;-71
2021/11/26 20:14:16;;;;;;;;;;;5.30;99.90;;;;;;8393784;28;19951;-71
2021/11/26 20:18:18;;;;;;;;;;;5.20;99.90;;;;;;8393348;28;20600;-72
2021/11/26 20:22:21;;;;;;;;;;;5.20;99.90;;;;;;8391457;28;20007;-71
2021/11/26 20:26:23;;;;;;;;;;;5.20;99.90;;;;;;8407473;28;19924;-71
2021/11/26 20:30:25;;;;;;;;;;;5.20;99.90;;;;;;8395160;28;19978;-72
2021/11/26 20:34:44;;;;;;;;;;;5.20;99.90;;;;;;8395036;28;20014;-71
2021/11/26 20:38:46;;;;;;;;;;;5.20;99.90;;;;;;8392930;28;19976;-71
2021/11/26 20:42:47;;;;;;;;;;;5.10;99.90;;;;;;8413731;28;19971;-72
2021/11/26 20:46:49;;;;;;;;;;;5.10;99.90;;;;;;8394944;28;19928;-72
2021/11/26 20:50:51;;;;;;;;;;;5.10;99.90;;;;;;8394651;28;19923;-71
2021/11/26 20:54:52;;;;;;;;;;;5.20;99.90;;;;;;8388957;28;20396;-71
2021/11/26 20:58:54;;;;;;;;;;;5.20;99.90;;;;;;8388686;28;19924;-72
2021/11/26 21:02:56;;;;;;;;;;;5.20;99.90;;;;;;8394714;28;19924;-71
2021/11/26 21:06:58;;;;;;;;;;;5.10;99.90;;;;;;8392813;28;19981;-71
2021/11/26 21:11:00;;;;;;;;;;;5.10;99.90;;;;;;8393213;28;19928;-72
2021/11/26 21:15:03;;;;;;;;;;;5.10;99.90;;;;;;8394980;28;19924;-71
2021/11/26 21:19:05;;;;;;;;;;;5.10;99.90;;;;;;8406420;28;20387;-71
2021/11/26 21:23:06;;;;;;;;;;;5.10;99.90;;;;;;8392197;28;19967;-72
2021/11/26 21:27:08;;;;;;;;;;;5.00;99.90;;;;;;8396417;28;19963;-72
2021/11/26 21:31:10;;;;;;;;;;;5.10;99.90;;;;;;8398120;28;19921;-73
2021/11/26 21:35:12;;;;;;;;;;;5.10;99.90;;;;;;8393372;28;19981;-71
2021/11/26 21:39:14;;;;;;;;;;;5.10;99.90;;;;;;8391929;28;19934;-72
2021/11/26 21:43:16;;;;;;;;;;;5.10;99.90;;;;;;8402812;28;20287;-71
2021/11/26 21:47:18;;;;;;;;;;;5.10;99.90;;;;;;8393249;28;19935;-72
2021/11/26 21:51:20;;;;;;;;;;;5.10;99.90;;;;;;8399016;28;19940;-72
2021/11/26 21:55:22;;;;;;;;;;;5.10;99.90;;;;;;8391960;28;19978;-71
2021/11/26 21:59:24;;;;;;;;;;;5.10;99.90;;;;;;8425937;27;19924;-71
2021/11/26 22:03:25;;;;;;;;;;;5.20;99.90;;;;;;8445694;27;20421;-71
2021/11/26 22:07:27;;;;;;;;;;;5.10;99.90;;;;;;8424448;28;19920;-71
2021/11/26 22:11:29;;;;;;;;;;;5.10;99.90;;;;;;8422696;28;19993;-71
2021/11/26 22:15:32;;;;;;;;;;;5.10;99.90;;;;;;8430328;28;19942;-71
2021/11/26 22:19:34;;;;;;;;;;;5.10;99.90;;;;;;8428577;28;19974;-72
2021/11/26 22:23:35;;;;;;;;;;;5.10;99.90;;;;;;8420499;28;19920;-71
2021/11/26 22:27:37;;;;;;;;;;;5.10;99.90;;;;;;8429201;28;19920;-71
2021/11/26 22:31:39;;;;;;;;;;;5.10;99.90;;;;;;8423799;28;19946;-71
2021/11/26 22:35:41;;;;;;;;;;;5.10;99.90;;;;;;8428127;28;19933;-72
2021/11/26 22:39:42;;;;;;;;;;;5.10;99.90;;;;;;8422883;28;20307;-71
2021/11/26 22:43:44;;;;;;;;;;;5.10;99.90;;;;;;8432971;28;20324;-71
2021/11/26 22:47:46;;;;;;;;;;;5.10;99.90;;;;;;8437051;28;19946;-71
2021/11/26 22:51:47;;;;;;;;;;;5.10;99.90;;;;;;8436124;28;19927;-71
2021/11/26 22:55:49;;;;;;;;;;;5.10;99.90;;;;;;8430584;28;19923;-72
2021/11/26 22:59:51;;;;;;;;;;;5.10;99.90;;;;;;8422688;28;19930;-72
2021/11/26 23:03:56;;;;;;;;;;;5.10;99.90;;;;;;8418155;28;19920;-72
2021/11/26 23:07:58;;;;;;;;;;;5.10;99.90;;;;;;8419811;28;19920;-71
2021/11/26 23:12:00;;;;;;;;;;;5.10;99.90;;;;;;8426418;28;19979;-72
2021/11/26 23:16:03;;;;;;;;;;;5.10;99.90;;;;;;8428991;28;19924;-71
2021/11/26 23:20:06;;;;;;;;;;;5.10;99.90;;;;;;8420197;28;19927;-71
2021/11/26 23:24:10;;;;;;;;;;;5.10;99.90;;;;;;8425724;28;20014;-71
2021/11/26 23:28:14;;;;;;;;;;;5.10;99.90;;;;;;8432652;28;19920;-71
2021/11/26 23:32:18;;;;;;;;;;;5.10;99.90;;;;;;8421100;28;19920;-72
2021/11/26 23:36:21;;;;;;;;;;;5.00;99.90;;;;;;8428367;28;20272;-71
2021/11/26 23:40:24;;;;;;;;;;;5.00;99.90;;;;;;8433337;27;19919;-72
2021/11/26 23:44:25;;;;;;;;;;;5.00;99.90;;;;;;8429963;28;19920;-72
2021/11/26 23:48:27;;;;;;;;;;;4.90;99.90;;;;;;8430307;28;19920;-72
2021/11/26 23:52:29;;;;;;;;;;;4.90;99.90;;;;;;8422691;28;19928;-72
2021/11/26 23:56:30;;;;;;;;;;;4.90;99.90;;;;;;8434627;28;19924;-72
